Time;durP1;ratioP1;P1;durP2;ratioP2;P2;SDS_P1;SDS_P2;PMS_P1;PMS_P2;Temp;Humidity;BMP_temperature;BMP_pressure;BME280_temperature;BME280_humidity;BME280_pressure;Samples;Min_cycle;Max_cycle;Signal;HPM_P1;HPM_P2
2022/07/03 00:02:00;;;;;;;1.73;1.63;;;25.10;99.90;;;;;;5014899;28;20262;-76
2022/07/03 00:04:27;;;;;;;1.90;1.70;;;25.10;99.90;;;;;;5013735;28;20224;-75
2022/07/03 00:06:55;;;;;;;4.32;1.83;;;25.10;99.90;;;;;;5024715;28;20196;-75
2022/07/03 00:09:24;;;;;;;2.45;1.83;;;25.10;99.90;;;;;;5014539;28;20216;-75
2022/07/03 00:11:51;;;;;;;3.55;1.85;;;25.20;99.90;;;;;;5022353;28;20200;-75
2022/07/03 00:14:18;;;;;;;1.95;1.75;;;25.20;99.90;;;;;;5013567;28;20228;-73
2022/07/03 00:16:46;;;;;;;2.38;1.50;;;25.20;99.90;;;;;;5012404;28;20195;-75
2022/07/03 00:19:13;;;;;;;2.05;1.85;;;25.20;99.90;;;;;;5005169;28;20199;-75
2022/07/03 00:21:46;;;;;;;2.55;1.90;;;25.20;99.90;;;;;;5010853;28;20562;-76
2022/07/03 00:24:20;;;;;;;3.40;2.00;;;25.10;99.90;;;;;;5013400;28;20219;-76
2022/07/03 00:26:52;;;;;;;1.88;1.75;;;25.00;99.90;;;;;;5011885;28;20191;-75
2022/07/03 00:29:22;;;;;;;2.47;1.90;;;25.00;99.90;;;;;;5005488;28;20224;-73
2022/07/03 00:31:50;;;;;;;1.80;1.70;;;24.90;99.90;;;;;;5006636;28;20227;-76
2022/07/03 00:34:18;;;;;;;1.73;1.63;;;24.70;99.90;;;;;;5005024;28;20232;-75
2022/07/03 00:36:48;;;;;;;2.25;1.98;;;24.40;99.90;;;;;;5006794;28;20211;-75
2022/07/03 00:39:16;;;;;;;3.35;1.80;;;24.30;99.90;;;;;;5004717;28;20200;-76
2022/07/03 00:41:45;;;;;;;2.30;2.10;;;24.10;99.90;;;;;;5011837;28;20197;-75
2022/07/03 00:44:14;;;;;;;2.05;1.85;;;24.20;99.90;;;;;;5008903;28;20240;-75
2022/07/03 00:46:42;;;;;;;2.08;1.98;;;24.10;99.90;;;;;;5012891;28;20204;-76
2022/07/03 00:49:10;;;;;;;2.22;1.98;;;24.20;99.90;;;;;;5006062;28;20643;-75
2022/07/03 00:51:41;;;;;;;2.80;2.00;;;24.30;99.90;;;;;;5005338;28;20205;-76
2022/07/03 00:54:10;;;;;;;1.80;1.70;;;24.40;99.90;;;;;;5010199;28;20228;-76
2022/07/03 00:56:40;;;;;;;2.03;1.92;;;24.50;99.90;;;;;;5008669;28;20196;-76
2022/07/03 00:59:08;;;;;;;1.88;1.77;;;24.50;99.90;;;;;;5002606;28;20228;-77
2022/07/03 01:01:40;;;;;;;2.85;1.90;;;24.50;99.90;;;;;;4999087;28;20219;-76
2022/07/03 01:04:22;;;;;;;2.30;2.10;;;24.50;99.90;;;;;;5000196;28;20224;-75
2022/07/03 01:06:53;;;;;;;2.05;1.90;;;24.50;99.90;;;;;;5004609;28;20215;-76
2022/07/03 01:09:33;;;;;;;2.20;1.80;;;24.50;99.90;;;;;;5004895;28;20219;-76
2022/07/03 01:12:06;;;;;;;2.00;1.90;;;24.60;99.90;;;;;;5008078;28;20204;-76
2022/07/03 01:14:43;;;;;;;2.00;1.90;;;24.70;99.90;;;;;;5011597;28;20235;-76
2022/07/03 01:17:25;;;;;;;2.40;1.95;;;24.70;99.90;;;;;;5004656;28;20216;-76
2022/07/03 01:20:01;;;;;;;1.98;1.88;;;24.70;99.90;;;;;;5005021;28;20618;-76
2022/07/03 01:22:31;;;;;;;3.00;2.00;;;24.70;99.90;;;;;;5001910;28;20200;-76
2022/07/03 01:25:15;;;;;;;2.17;1.83;;;24.70;99.90;;;;;;5004899;28;20220;-76
2022/07/03 01:27:55;;;;;;;2.58;2.38;;;24.70;99.90;;;;;;5005776;28;20228;-78
2022/07/03 01:30:24;;;;;;;2.45;2.25;;;24.50;99.90;;;;;;5004814;28;20222;-76
2022/07/03 01:32:59;;;;;;;2.05;1.90;;;24.40;99.90;;;;;;5008007;28;20200;-76
2022/07/03 01:35:31;;;;;;;2.40;2.20;;;24.30;99.90;;;;;;5003569;28;20219;-75
2022/07/03 01:38:03;;;;;;;2.42;2.00;;;24.30;99.90;;;;;;5004667;28;20563;-76
2022/07/03 01:40:32;;;;;;;1.85;1.75;;;24.30;99.90;;;;;;5005366;28;20230;-76
2022/07/03 01:43:03;;;;;;;2.50;2.08;;;24.30;99.90;;;;;;5006432;28;20222;-76
2022/07/03 01:45:33;;;;;;;2.20;2.08;;;24.40;99.90;;;;;;5001959;28;20224;-75
2022/07/03 01:48:03;;;;;;;2.28;2.10;;;24.40;99.90;;;;;;5010539;28;20270;-76
2022/07/03 01:50:31;;;;;;;2.08;1.80;;;24.50;99.90;;;;;;5003475;28;20223;-76
2022/07/03 01:53:02;;;;;;;2.25;1.85;;;24.40;99.90;;;;;;5008107;28;20202;-75
2022/07/03 01:55:32;;;;;;;3.50;2.08;;;24.40;99.90;;;;;;5004827;28;20642;-75
2022/07/03 01:58:01;;;;;;;2.30;2.15;;;24.40;99.90;;;;;;5006670;28;20239;-76
2022/07/03 02:00:29;;;;;;;2.20;2.03;;;24.40;99.90;;;;;;5008879;28;20228;-76
2022/07/03 02:03:03;;;;;;;2.42;2.22;;;24.40;99.90;;;;;;5005715;28;20219;-75
2022/07/03 02:05:37;;;;;;;2.80;2.20;;;24.40;99.90;;;;;;5003863;28;20224;-75
2022/07/03 02:08:13;;;;;;;2.80;2.40;;;24.40;99.90;;;;;;5008664;28;20220;-75
2022/07/03 02:10:46;;;;;;;2.75;2.50;;;24.40;99.90;;;;;;5004553;28;20208;-77
2022/07/03 02:15:50;;;;;;;2.30;2.10;;;24.40;99.90;;;;;;5019387;28;20650;-74
2022/07/03 02:18:28;;;;;;;5.55;2.05;;;24.30;99.90;;;;;;5017255;28;20220;-74
2022/07/03 02:21:05;;;;;;;2.78;2.45;;;24.30;99.90;;;;;;5020669;28;20310;-74
2022/07/03 02:23:37;;;;;;;3.58;2.47;;;24.30;99.90;;;;;;5015518;28;20223;-73
2022/07/03 02:26:07;;;;;;;2.40;2.20;;;24.30;99.90;;;;;;4999788;28;20239;-74
2022/07/03 02:28:51;;;;;;;2.53;2.08;;;24.30;99.90;;;;;;5002548;28;20758;-74
2022/07/03 02:31:22;;;;;;;2.65;2.25;;;24.30;99.90;;;;;;4998247;28;20256;-74
2022/07/03 02:33:56;;;;;;;2.08;1.92;;;24.30;99.90;;;;;;4996687;28;20244;-74
2022/07/03 02:36:28;;;;;;;2.10;2.00;;;24.30;99.90;;;;;;4997718;28;20212;-74
2022/07/03 02:38:57;;;;;;;2.30;2.05;;;24.30;99.90;;;;;;5001621;28;20200;-74
2022/07/03 02:41:29;;;;;;;2.70;2.40;;;24.20;99.90;;;;;;4998496;28;20235;-74
2022/07/03 02:44:02;;;;;;;3.42;2.10;;;24.20;99.90;;;;;;4997609;28;20229;-74
2022/07/03 02:46:52;;;;;;;2.45;2.25;;;24.10;99.90;;;;;;4996369;28;20223;-75
2022/07/03 02:49:42;;;;;;;2.10;2.00;;;24.10;99.90;;;;;;5003666;28;20219;-74
2022/07/03 02:52:21;;;;;;;2.83;2.25;;;24.10;99.90;;;;;;4999454;28;20196;-73
2022/07/03 02:54:52;;;;;;;3.65;2.13;;;24.10;99.90;;;;;;4998393;28;20224;-74
2022/07/03 02:57:20;;;;;;;2.70;2.40;;;24.10;99.90;;;;;;5003075;28;20331;-73
2022/07/03 02:59:56;;;;;;;2.38;2.17;;;24.20;99.90;;;;;;4997629;28;20318;-74
2022/07/03 03:02:53;;;;;;;2.70;2.50;;;24.20;99.90;;;;;;4997067;28;20211;-74
2022/07/03 03:05:28;;;;;;;7.53;2.58;;;24.20;99.90;;;;;;4999864;28;20302;-74
2022/07/03 03:08:06;;;;;;;2.33;2.13;;;24.20;99.90;;;;;;5002364;28;20235;-74
2022/07/03 03:10:36;;;;;;;3.17;2.15;;;24.20;99.90;;;;;;5001266;28;20230;-73
2022/07/03 03:13:05;;;;;;;4.00;2.90;;;24.10;99.90;;;;;;4998293;28;20202;-74
2022/07/03 03:15:33;;;;;;;3.45;2.65;;;24.10;99.90;;;;;;5001469;28;20224;-74
2022/07/03 03:18:07;;;;;;;2.72;2.08;;;24.10;99.90;;;;;;5000893;28;20196;-74
2022/07/03 03:20:37;;;;;;;2.63;2.42;;;24.10;99.90;;;;;;5003791;28;20234;-74
2022/07/03 03:23:22;;;;;;;2.60;2.35;;;24.10;99.90;;;;;;4996448;28;20201;-73
2022/07/03 03:25:53;;;;;;;3.65;2.25;;;24.00;99.90;;;;;;4995326;28;20302;-74
2022/07/03 03:28:21;;;;;;;3.08;2.30;;;24.00;99.90;;;;;;5002827;28;20206;-73
2022/07/03 03:30:49;;;;;;;2.58;2.38;;;24.00;99.90;;;;;;4998526;28;20227;-75
2022/07/03 03:33:18;;;;;;;2.63;2.10;;;23.90;99.90;;;;;;4998294;28;20199;-73
2022/07/03 03:35:46;;;;;;;2.35;2.25;;;23.90;99.90;;;;;;4998653;28;20226;-74
2022/07/03 03:38:13;;;;;;;2.50;2.30;;;23.90;99.90;;;;;;5001185;28;20211;-74
2022/07/03 03:40:41;;;;;;;2.47;2.28;;;23.90;99.90;;;;;;5001818;28;20224;-74
2022/07/03 03:43:08;;;;;;;2.60;2.40;;;23.90;99.90;;;;;;5000941;28;20215;-74
2022/07/03 03:45:35;;;;;;;2.58;2.38;;;23.90;99.90;;;;;;4998654;28;20762;-73
2022/07/03 03:48:02;;;;;;;2.67;2.45;;;23.90;99.90;;;;;;5001150;28;20295;-78
2022/07/03 03:50:31;;;;;;;2.88;2.58;;;23.90;99.90;;;;;;4998978;28;20223;-73
2022/07/03 03:53:00;;;;;;;2.53;2.33;;;23.90;99.90;;;;;;4997514;28;20235;-73
2022/07/03 03:55:27;;;;;;;2.17;2.08;;;23.90;99.90;;;;;;4996306;28;20232;-73
2022/07/03 03:57:55;;;;;;;2.70;2.17;;;23.80;99.90;;;;;;4998663;28;20214;-74
2022/07/03 04:00:22;;;;;;;2.58;2.30;;;23.80;99.90;;;;;;4999864;28;20703;-73
2022/07/03 04:02:49;;;;;;;2.90;2.60;;;23.80;99.90;;;;;;4998172;28;20565;-73
2022/07/03 04:05:16;;;;;;;2.58;2.38;;;23.80;99.90;;;;;;4995585;28;20591;-74
2022/07/03 04:07:45;;;;;;;2.50;2.30;;;23.80;99.90;;;;;;4999601;28;20363;-74
2022/07/03 04:10:12;;;;;;;2.55;2.30;;;23.80;99.90;;;;;;4999294;28;20229;-74
2022/07/03 04:12:39;;;;;;;2.53;2.38;;;23.90;99.90;;;;;;4995378;28;20196;-74
2022/07/03 04:15:07;;;;;;;2.67;2.47;;;23.90;99.90;;;;;;5003103;28;20263;-74
2022/07/03 04:17:34;;;;;;;2.30;2.10;;;24.00;99.90;;;;;;5004056;28;20223;-73
2022/07/03 04:20:01;;;;;;;2.45;2.25;;;24.00;99.90;;;;;;5003690;28;20595;-73
2022/07/03 04:22:28;;;;;;;2.22;2.08;;;24.00;99.90;;;;;;5001301;28;20599;-73
2022/07/03 04:24:57;;;;;;;2.75;2.25;;;24.00;99.90;;;;;;4995268;28;20865;-74
2022/07/03 04:27:24;;;;;;;3.05;2.33;;;24.00;99.90;;;;;;5001471;28;20208;-74
2022/07/03 04:29:51;;;;;;;2.50;2.30;;;23.90;99.90;;;;;;4998867;28;20233;-73
2022/07/03 04:32:18;;;;;;;2.35;2.10;;;24.00;99.90;;;;;;5004001;28;20205;-73
2022/07/03 04:34:45;;;;;;;2.80;2.40;;;24.00;99.90;;;;;;5002226;28;20225;-74
2022/07/03 04:37:13;;;;;;;2.58;2.15;;;24.00;99.90;;;;;;5004354;28;20204;-73
2022/07/03 04:39:40;;;;;;;2.83;2.30;;;24.00;99.90;;;;;;5002073;28;20216;-73
2022/07/03 04:42:09;;;;;;;2.50;2.30;;;24.00;99.90;;;;;;5001296;28;20214;-74
2022/07/03 04:44:36;;;;;;;2.28;2.10;;;24.00;99.90;;;;;;5002767;28;20224;-73
2022/07/03 04:47:04;;;;;;;3.25;2.47;;;24.00;99.90;;;;;;5002651;28;20201;-74
2022/07/03 04:49:31;;;;;;;2.40;2.20;;;24.00;99.90;;;;;;5008190;28;20712;-74
2022/07/03 04:51:58;;;;;;;2.58;2.38;;;24.00;99.90;;;;;;4999194;28;20445;-74
2022/07/03 04:54:25;;;;;;;3.55;2.00;;;24.10;99.90;;;;;;4999505;28;20232;-74
2022/07/03 04:56:52;;;;;;;2.42;2.22;;;24.20;99.90;;;;;;5002548;28;20205;-73
2022/07/03 04:59:21;;;;;;;2.40;2.20;;;24.30;99.90;;;;;;5002016;28;20524;-72
2022/07/03 05:01:49;;;;;;;2.45;2.25;;;24.40;99.90;;;;;;5001621;28;20301;-74
2022/07/03 05:04:16;;;;;;;2.53;2.33;;;24.50;99.90;;;;;;5000330;28;20224;-74
2022/07/03 05:06:44;;;;;;;3.15;2.63;;;24.60;99.90;;;;;;4999818;28;20592;-73
2022/07/03 05:09:11;;;;;;;3.10;2.53;;;24.60;99.90;;;;;;4996142;28;21155;-74
2022/07/03 05:11:38;;;;;;;3.70;2.47;;;24.60;99.90;;;;;;4995234;28;20312;-73
2022/07/03 05:14:06;;;;;;;3.13;2.42;;;24.60;99.90;;;;;;4995899;28;20236;-74
2022/07/03 05:16:34;;;;;;;2.63;2.42;;;24.60;99.90;;;;;;5000513;28;20205;-73
2022/07/03 05:19:02;;;;;;;2.97;2.78;;;24.60;99.90;;;;;;5003813;28;20197;-74
2022/07/03 05:21:29;;;;;;;2.75;2.55;;;24.60;99.90;;;;;;5003178;28;20203;-74
2022/07/03 05:23:56;;;;;;;3.30;3.00;;;24.70;99.90;;;;;;5003763;28;20232;-74
2022/07/03 05:26:23;;;;;;;2.80;2.60;;;24.70;99.90;;;;;;4996462;28;20247;-73
2022/07/03 05:28:51;;;;;;;3.03;2.83;;;24.60;99.90;;;;;;4996598;28;20200;-73
2022/07/03 05:31:18;;;;;;;3.38;2.78;;;24.70;99.90;;;;;;5003682;28;20234;-73
2022/07/03 05:33:47;;;;;;;4.50;2.92;;;24.70;99.90;;;;;;4996805;28;20231;-74
2022/07/03 05:36:14;;;;;;;2.63;2.42;;;24.80;99.90;;;;;;5007233;28;20227;-75
2022/07/03 05:41:31;;;;;;;3.67;2.90;;;24.90;99.90;;;;;;4980791;28;20212;-74
2022/07/03 05:43:58;;;;;;;3.97;3.33;;;24.90;99.90;;;;;;5002337;28;20220;-74
2022/07/03 05:46:25;;;;;;;4.55;3.17;;;24.90;99.90;;;;;;4997433;28;20832;-74
2022/07/03 05:48:54;;;;;;;3.60;3.10;;;24.90;99.90;;;;;;5001352;28;20266;-74
2022/07/03 05:51:21;;;;;;;3.55;3.25;;;24.90;99.90;;;;;;4999231;28;20216;-73
2022/07/03 05:53:48;;;;;;;3.00;2.80;;;24.90;99.90;;;;;;4994447;28;20228;-74
2022/07/03 05:56:16;;;;;;;3.03;2.83;;;25.00;99.90;;;;;;5000418;28;20219;-74
2022/07/03 05:58:43;;;;;;;3.17;2.95;;;25.10;99.90;;;;;;5000088;28;20660;-74
2022/07/03 06:01:10;;;;;;;4.50;3.58;;;25.20;99.90;;;;;;4998638;28;20224;-73
2022/07/03 06:03:37;;;;;;;3.60;3.30;;;25.30;99.90;;;;;;5004066;28;20683;-73
2022/07/03 06:06:06;;;;;;;3.42;3.13;;;25.40;99.90;;;;;;5007710;28;20709;-74
2022/07/03 06:08:33;;;;;;;5.18;3.40;;;25.50;99.90;;;;;;4997465;28;20210;-74
2022/07/03 06:11:00;;;;;;;6.40;4.00;;;25.50;99.90;;;;;;5002605;28;20672;-74
2022/07/03 06:13:27;;;;;;;5.15;3.50;;;25.50;99.90;;;;;;5000175;28;20220;-74
2022/07/03 06:15:54;;;;;;;3.47;3.17;;;25.60;99.90;;;;;;5003407;28;20220;-73
2022/07/03 06:18:21;;;;;;;3.72;3.10;;;25.70;99.90;;;;;;5008557;28;20204;-75
2022/07/03 06:20:48;;;;;;;4.70;3.35;;;25.70;99.90;;;;;;5003535;28;20292;-75
2022/07/03 06:23:17;;;;;;;4.25;3.00;;;25.70;99.90;;;;;;5002680;28;20204;-74
2022/07/03 06:25:44;;;;;;;3.40;3.15;;;25.90;99.90;;;;;;5004807;28;20216;-73
2022/07/03 06:28:11;;;;;;;3.50;3.17;;;26.20;99.90;;;;;;4999643;28;20582;-72
2022/07/03 06:30:38;;;;;;;4.13;3.72;;;26.20;99.90;;;;;;4995640;28;20212;-74
2022/07/03 06:33:05;;;;;;;3.83;3.58;;;26.20;99.90;;;;;;5003262;28;20204;-73
2022/07/03 06:35:33;;;;;;;6.18;3.42;;;26.20;99.90;;;;;;5004575;28;20231;-73
2022/07/03 06:38:03;;;;;;;5.68;3.50;;;26.10;99.90;;;;;;4998620;28;20200;-73
2022/07/03 06:40:31;;;;;;;3.50;3.20;;;26.10;99.90;;;;;;4996074;28;20303;-73
2022/07/03 06:42:59;;;;;;;3.75;3.30;;;26.20;99.90;;;;;;4999898;28;20689;-74
2022/07/03 06:45:26;;;;;;;3.33;3.03;;;26.30;99.90;;;;;;4999316;28;20216;-74
2022/07/03 06:47:53;;;;;;;5.22;3.17;;;26.40;99.90;;;;;;5001743;28;20708;-74
2022/07/03 06:50:20;;;;;;;4.18;3.30;;;26.50;99.90;;;;;;4995430;28;20236;-74
2022/07/03 06:52:47;;;;;;;5.63;3.53;;;26.70;99.90;;;;;;5004639;28;20207;-74
2022/07/03 06:55:15;;;;;;;3.47;3.20;;;27.00;99.90;;;;;;4995887;28;20267;-74
2022/07/03 06:57:43;;;;;;;3.78;3.47;;;27.00;99.90;;;;;;5004876;28;20208;-74
2022/07/03 07:00:11;;;;;;;4.45;3.83;;;27.00;99.90;;;;;;5007551;28;20219;-74
2022/07/03 07:02:38;;;;;;;4.40;3.80;;;27.00;99.90;;;;;;5006067;28;20200;-73
2022/07/03 07:05:06;;;;;;;3.92;3.60;;;27.00;99.90;;;;;;5001076;28;21045;-76
2022/07/03 07:07:34;;;;;;;6.35;3.25;;;27.10;99.90;;;;;;5002001;28;20659;-74
2022/07/03 07:10:01;;;;;;;3.60;3.33;;;27.20;99.90;;;;;;4997475;28;20208;-73
2022/07/03 07:12:28;;;;;;;3.63;3.42;;;27.30;99.90;;;;;;4995359;28;20199;-75
2022/07/03 07:14:56;;;;;;;3.92;3.63;;;27.50;99.90;;;;;;5007674;28;20216;-74
2022/07/03 07:17:23;;;;;;;4.95;4.10;;;27.50;99.90;;;;;;5006378;28;20211;-72
2022/07/03 07:19:50;;;;;;;3.95;3.58;;;27.50;99.90;;;;;;5003957;28;20218;-74
2022/07/03 07:22:18;;;;;;;4.00;3.45;;;27.40;99.90;;;;;;5003001;28;20204;-74
2022/07/03 07:24:45;;;;;;;4.35;3.80;;;27.40;99.90;;;;;;5002699;28;20227;-75
2022/07/03 07:27:12;;;;;;;4.18;3.78;;;27.50;99.90;;;;;;5004066;28;20593;-75
2022/07/03 07:29:39;;;;;;;4.45;4.03;;;27.50;99.90;;;;;;5003634;28;20733;-74
2022/07/03 07:32:08;;;;;;;6.68;3.92;;;27.60;99.90;;;;;;5005639;28;20196;-75
2022/07/03 07:34:35;;;;;;;4.32;3.70;;;27.80;99.90;;;;;;5002979;28;20757;-75
2022/07/03 07:37:02;;;;;;;4.75;3.58;;;28.10;99.90;;;;;;4999609;28;20189;-75
2022/07/03 07:39:29;;;;;;;4.32;3.67;;;28.10;99.90;;;;;;5002814;28;20219;-75
2022/07/03 07:41:56;;;;;;;4.43;3.70;;;28.10;99.90;;;;;;4998213;28;20196;-76
2022/07/03 07:44:23;;;;;;;4.45;3.80;;;28.20;99.90;;;;;;5000945;28;20232;-76
2022/07/03 07:46:51;;;;;;;4.20;3.80;;;28.20;99.90;;;;;;5002759;28;20223;-76
2022/07/03 07:49:19;;;;;;;5.22;3.83;;;28.20;99.90;;;;;;5004372;28;20561;-77
2022/07/03 07:51:46;;;;;;;4.68;4.00;;;28.10;99.90;;;;;;5004562;28;20390;-76
2022/07/03 07:54:13;;;;;;;4.03;3.50;;;28.20;99.90;;;;;;5004298;28;20227;-75
2022/07/03 07:56:40;;;;;;;4.18;3.80;;;28.10;99.90;;;;;;5002832;28;20678;-75
2022/07/03 07:59:07;;;;;;;5.00;3.90;;;28.10;99.90;;;;;;5002175;28;20220;-75
2022/07/03 08:07:05;;;;;;;3.42;3.03;;;28.30;99.90;;;;;;5002823;28;20227;-77
2022/07/03 08:09:32;;;;;;;7.13;4.07;;;28.50;99.90;;;;;;5005165;28;20216;-75
2022/07/03 08:11:59;;;;;;;3.45;3.15;;;28.70;99.90;;;;;;5004076;28;20196;-76
2022/07/03 08:14:26;;;;;;;5.55;3.80;;;28.90;99.90;;;;;;5008372;28;20234;-75
2022/07/03 08:16:53;;;;;;;4.80;3.40;;;28.90;99.90;;;;;;5016561;23;20311;-88
2022/07/03 08:19:22;;;;;;;4.28;3.80;;;29.00;99.90;;;;;;5001802;28;20235;-86
2022/07/03 08:21:49;;;;;;;7.68;3.60;;;29.10;99.90;;;;;;5022390;28;20196;-87
2022/07/03 08:24:16;;;;;;;4.18;3.55;;;29.00;99.90;;;;;;5009246;28;20207;-88
2022/07/03 08:26:43;;;;;;;4.18;3.50;;;29.10;99.90;;;;;;5004601;28;20224;-88
2022/07/03 08:29:10;;;;;;;3.95;3.58;;;29.10;99.90;;;;;;5007522;28;20578;-89
2022/07/03 08:31:37;;;;;;;3.58;3.17;;;29.10;99.90;;;;;;5011708;28;20247;-88
2022/07/03 08:34:04;;;;;;;5.18;3.78;;;29.20;99.90;;;;;;5009230;28;20235;-86
2022/07/03 08:36:33;;;;;;;5.35;3.53;;;29.40;99.90;;;;;;5006804;28;20593;-88
2022/07/03 08:39:00;;;;;;;3.75;3.35;;;29.50;99.90;;;;;;5009031;28;20196;-88
2022/07/03 08:41:29;;;;;;;4.13;3.33;;;29.80;99.90;;;;;;5009379;28;20574;-86
2022/07/03 08:43:57;;;;;;;4.45;3.15;;;30.00;99.90;;;;;;5006664;28;20200;-85
2022/07/03 08:46:26;;;;;;;4.47;3.55;;;30.00;99.90;;;;;;5005203;28;21090;-86
2022/07/03 08:48:54;;;;;;;4.85;3.72;;;29.90;99.90;;;;;;5008792;28;20196;-86
2022/07/03 08:51:22;;;;;;;4.35;3.80;;;30.10;99.90;;;;;;5006899;28;20574;-87
2022/07/03 08:53:54;;;;;;;3.83;3.45;;;30.10;99.90;;;;;;5008691;28;20310;-86
2022/07/03 08:56:22;;;;;;;4.57;3.42;;;30.30;99.90;;;;;;5008373;28;20217;-86
2022/07/03 08:58:49;;;;;;;4.13;3.60;;;30.50;99.90;;;;;;5008430;28;20204;-86
2022/07/03 09:01:18;;;;;;;4.15;3.20;;;30.60;99.90;;;;;;5006033;28;20229;-86
2022/07/03 09:03:46;;;;;;;3.72;3.30;;;30.60;99.90;;;;;;5010517;28;20949;-87
2022/07/03 09:06:14;;;;;;;3.30;2.83;;;30.50;99.90;;;;;;5005873;28;20232;-87
2022/07/03 09:08:42;;;;;;;3.60;3.30;;;30.50;99.90;;;;;;5007312;28;20203;-87
2022/07/03 09:11:11;;;;;;;4.00;3.50;;;30.60;99.90;;;;;;5006630;28;20223;-87
2022/07/03 09:13:38;;;;;;;3.67;3.38;;;30.80;99.90;;;;;;5009577;28;20321;-83
2022/07/03 09:16:06;;;;;;;3.53;3.22;;;30.70;99.90;;;;;;5008498;28;20227;-84
2022/07/03 09:18:40;;;;;;;5.57;3.13;;;30.70;99.90;;;;;;5008325;28;20215;-85
2022/07/03 09:21:08;;;;;;;3.45;3.15;;;30.80;99.90;;;;;;5007567;28;20307;-85
2022/07/03 09:23:40;;;;;;;3.42;3.13;;;30.80;99.90;;;;;;5008321;28;20197;-84
2022/07/03 09:26:12;;;;;;;3.58;3.28;;;30.80;99.90;;;;;;5002677;28;20227;-85
2022/07/03 09:28:46;;;;;;;3.65;3.35;;;30.90;99.90;;;;;;5005326;28;20236;-85
2022/07/03 09:31:16;;;;;;;3.03;2.72;;;31.00;99.90;;;;;;5004856;28;20230;-84
2022/07/03 09:33:55;;;;;;;4.60;3.30;;;31.10;99.90;;;;;;4996903;28;20204;-85
2022/07/03 09:36:24;;;;;;;3.40;3.05;;;31.30;99.90;;;;;;4994025;28;20247;-85
2022/07/03 09:38:51;;;;;;;4.50;3.28;;;31.20;99.90;;;;;;4998583;28;20220;-84
2022/07/03 09:41:18;;;;;;;3.58;3.28;;;31.20;99.90;;;;;;4985057;28;20220;-84
2022/07/03 09:43:47;;;;;;;3.90;2.95;;;31.30;99.90;;;;;;5004164;28;20197;-84
2022/07/03 09:46:14;;;;;;;3.72;2.72;;;31.40;99.90;;;;;;4999964;28;20227;-86
2022/07/03 09:48:42;;;;;;;3.50;3.20;;;31.40;99.90;;;;;;5008414;28;20200;-84
2022/07/03 09:51:27;;;;;;;4.60;2.90;;;31.40;99.90;;;;;;5005623;28;20232;-84
2022/07/03 09:53:56;;;;;;;4.38;3.17;;;31.50;99.90;;;;;;5010824;28;20204;-84
2022/07/03 09:56:25;;;;;;;5.88;3.58;;;31.40;99.90;;;;;;5006071;28;20231;-85
2022/07/03 09:59:12;;;;;;;3.78;3.42;;;31.50;99.90;;;;;;5006662;28;20192;-86
2022/07/03 10:01:40;;;;;;;4.53;3.25;;;31.60;99.90;;;;;;5009294;28;20228;-85
2022/07/03 10:04:19;;;;;;;4.88;3.28;;;31.70;99.90;;;;;;5008449;28;20558;-85
2022/07/03 10:06:54;;;;;;;3.90;3.20;;;31.80;99.90;;;;;;5004579;28;20286;-84
2022/07/03 10:09:24;;;;;;;3.50;2.88;;;31.90;99.90;;;;;;5007393;28;20607;-85
2022/07/03 10:11:53;;;;;;;4.18;2.80;;;32.00;99.90;;;;;;5008938;28;20199;-84
2022/07/03 10:14:23;;;;;;;3.78;3.20;;;32.10;99.90;;;;;;5004438;28;20227;-82
2022/07/03 10:16:50;;;;;;;3.00;2.53;;;32.20;99.90;;;;;;5009307;28;20196;-85
2022/07/03 10:19:20;;;;;;;4.65;3.10;;;32.50;99.90;;;;;;5009458;28;20232;-86
2022/07/03 10:21:53;;;;;;;4.10;3.00;;;32.70;99.90;;;;;;5007990;28;20204;-85
2022/07/03 10:24:23;;;;;;;3.80;2.88;;;32.80;99.90;;;;;;5011073;28;20260;-82
2022/07/03 10:26:51;;;;;;;4.03;2.80;;;32.80;99.90;;;;;;5008933;28;20260;-83
2022/07/03 10:29:20;;;;;;;4.63;3.08;;;33.00;99.90;;;;;;5002979;28;20316;-81
2022/07/03 10:31:50;;;;;;;3.70;2.97;;;32.90;99.90;;;;;;5002426;28;20644;-82
2022/07/03 10:34:19;;;;;;;3.10;2.80;;;33.00;99.90;;;;;;5002478;28;20231;-82
2022/07/03 10:36:48;;;;;;;3.58;3.10;;;33.10;99.90;;;;;;5003794;28;20484;-82
2022/07/03 10:39:29;;;;;;;7.32;3.33;;;33.10;99.90;;;;;;5005528;28;20663;-83
2022/07/03 10:45:06;;;;;;;3.58;2.92;;;33.10;99.90;;;;;;5006384;28;20231;-82
2022/07/03 10:47:56;;;;;;;4.00;2.78;;;33.30;99.90;;;;;;5004284;28;20228;-83
2022/07/03 10:50:24;;;;;;;3.70;2.78;;;33.40;99.90;;;;;;4993562;28;20228;-82
2022/07/03 10:52:52;;;;;;;2.72;2.53;;;33.50;99.90;;;;;;5000852;28;20212;-81
2022/07/03 10:55:19;;;;;;;3.38;2.63;;;33.60;99.90;;;;;;5004641;28;20575;-81
2022/07/03 10:58:08;;;;;;;5.53;2.58;;;33.70;99.90;;;;;;5007967;28;20599;-79
2022/07/03 11:00:53;;;;;;;3.33;2.67;;;33.60;99.90;;;;;;5003488;28;20243;-80
2022/07/03 11:03:56;;;;;;;2.95;2.65;;;33.60;99.90;;;;;;5005424;28;20200;-81
2022/07/03 11:07:02;;;;;;;3.63;3.15;;;33.60;99.90;;;;;;5007627;28;20562;-80
2022/07/03 11:09:29;;;;;;;2.92;2.65;;;33.70;99.90;;;;;;5003446;28;20887;-81
2022/07/03 11:11:57;;;;;;;2.97;2.50;;;33.80;99.90;;;;;;5007519;28;20208;-78
2022/07/03 11:14:25;;;;;;;4.43;3.00;;;33.90;99.90;;;;;;5005882;28;20307;-78
2022/07/03 11:17:19;;;;;;;2.97;2.65;;;33.90;99.90;;;;;;5005168;28;20749;-79
2022/07/03 11:22:37;;;;;;;3.22;2.58;;;34.00;99.90;;;;;;5007587;28;20681;-82
2022/07/03 11:25:09;;;;;;;4.18;2.70;;;34.10;99.90;;;;;;5009649;28;20223;-84
2022/07/03 11:27:36;;;;;;;4.28;2.63;;;34.20;99.90;;;;;;5010622;28;20720;-82
2022/07/03 11:30:04;;;;;;;2.60;2.40;;;34.40;99.90;;;;;;5007771;28;20220;-82
2022/07/03 11:32:59;;;;;;;4.75;2.90;;;34.50;99.90;;;;;;5008898;28;20718;-82
2022/07/03 11:35:51;;;;;;;5.35;2.90;;;34.50;99.90;;;;;;5003899;28;20232;-82
2022/07/03 11:38:23;;;;;;;3.75;2.80;;;34.50;99.90;;;;;;5012016;28;20809;-82
2022/07/03 11:40:54;;;;;;;3.75;2.53;;;34.40;99.90;;;;;;5011360;28;20212;-84
2022/07/03 11:43:22;;;;;;;4.15;2.58;;;34.40;99.90;;;;;;5011827;28;20558;-83
2022/07/03 11:45:50;;;;;;;4.47;3.00;;;34.60;99.90;;;;;;5012334;28;20245;-83
2022/07/03 11:48:18;;;;;;;3.53;2.55;;;34.70;99.90;;;;;;5013019;28;20227;-84
2022/07/03 11:50:47;;;;;;;3.97;2.40;;;34.60;99.90;;;;;;5009230;28;20225;-85
2022/07/03 11:53:24;;;;;;;3.08;2.45;;;34.50;99.90;;;;;;5008342;28;20204;-84
2022/07/03 11:55:53;;;;;;;5.78;2.70;;;34.50;99.90;;;;;;5011523;28;20235;-84
2022/07/03 11:58:20;;;;;;;3.45;2.38;;;34.50;99.90;;;;;;5016240;28;20669;-85
2022/07/03 12:00:48;;;;;;;2.70;2.50;;;34.60;99.90;;;;;;5012062;28;20232;-84
2022/07/03 12:03:17;;;;;;;2.65;2.45;;;34.50;99.90;;;;;;5015682;28;20203;-85
2022/07/03 12:06:07;;;;;;;2.72;2.42;;;34.50;99.90;;;;;;5014497;28;20232;-85
2022/07/03 12:08:36;;;;;;;2.25;2.08;;;34.60;99.90;;;;;;5002790;28;20223;-85
2022/07/03 12:11:08;;;;;;;2.63;2.25;;;34.70;99.90;;;;;;5014237;28;20241;-85
2022/07/03 12:13:36;;;;;;;3.67;2.33;;;34.90;99.90;;;;;;5015202;28;20195;-85
2022/07/03 12:16:08;;;;;;;2.80;2.17;;;35.10;99.50;;;;;;5014074;28;20223;-85
2022/07/03 12:18:46;;;;;;;2.53;2.33;;;35.20;99.30;;;;;;5016037;28;20266;-85
2022/07/03 12:21:14;;;;;;;2.50;2.30;;;35.40;97.60;;;;;;5014377;28;20292;-85
2022/07/03 12:23:45;;;;;;;3.95;2.20;;;35.40;97.40;;;;;;5016004;28;20203;-85
2022/07/03 12:26:13;;;;;;;2.10;1.90;;;35.50;97.60;;;;;;5014475;28;20298;-84
2022/07/03 12:28:40;;;;;;;2.60;2.20;;;35.40;96.90;;;;;;5014326;28;20274;-84
2022/07/03 12:31:08;;;;;;;2.63;1.83;;;35.30;96.10;;;;;;5011781;28;20235;-84
2022/07/03 12:33:36;;;;;;;2.45;1.90;;;35.10;96.00;;;;;;5015095;28;20207;-84
2022/07/03 12:36:07;;;;;;;3.13;2.38;;;35.20;95.80;;;;;;5014374;28;20313;-85
2022/07/03 12:38:37;;;;;;;1.77;1.60;;;35.40;95.00;;;;;;5016462;28;20188;-84
2022/07/03 12:41:07;;;;;;;2.03;1.77;;;35.40;94.30;;;;;;5013444;28;20220;-85
2022/07/03 12:43:39;;;;;;;2.22;1.50;;;35.60;93.10;;;;;;5016628;28;20207;-85
2022/07/03 12:46:17;;;;;;;2.47;1.52;;;35.80;91.80;;;;;;5013974;28;20228;-84
2022/07/03 12:48:51;;;;;;;1.95;1.48;;;35.80;90.00;;;;;;5013109;28;20277;-84
2022/07/03 12:51:38;;;;;;;1.13;1.10;;;36.10;90.70;;;;;;5014883;28;20235;-84
2022/07/03 12:54:06;;;;;;;1.40;1.30;;;36.30;85.80;;;;;;5009481;28;20208;-84
2022/07/03 12:56:35;;;;;;;1.80;1.45;;;36.20;89.80;;;;;;5016962;28;20215;-84
2022/07/03 12:59:19;;;;;;;1.48;1.38;;;36.10;86.30;;;;;;5013561;28;20184;-84
2022/07/03 13:01:59;;;;;;;1.23;1.10;;;36.10;85.70;;;;;;5012430;28;20217;-83
2022/07/03 13:04:35;;;;;;;2.13;1.20;;;36.20;84.30;;;;;;5013284;28;20219;-83
2022/07/03 13:07:07;;;;;;;1.65;1.33;;;36.40;83.10;;;;;;5009766;28;20283;-83
2022/07/03 13:09:34;;;;;;;1.42;1.13;;;36.40;80.60;;;;;;5015490;28;20246;-83
2022/07/03 13:12:04;;;;;;;1.50;1.20;;;36.40;77.80;;;;;;5013902;28;20211;-84
2022/07/03 13:14:31;;;;;;;1.40;1.30;;;36.30;78.00;;;;;;5014824;28;20216;-83
2022/07/03 13:16:59;;;;;;;1.63;1.30;;;36.30;77.10;;;;;;5013757;28;20218;-83
2022/07/03 13:19:28;;;;;;;1.75;1.20;;;36.20;77.50;;;;;;5014118;28;20220;-82
2022/07/03 13:21:56;;;;;;;1.30;1.20;;;36.20;78.90;;;;;;5010131;28;20550;-83